createdAt,value
2019-04-21T00:01:16.660Z,17.70
2019-04-21T00:03:53.328Z,17.20
2019-04-21T00:06:45.964Z,22.17
2019-04-21T00:09:11.492Z,21.15
2019-04-21T00:11:41.289Z,17.57
2019-04-21T00:14:01.888Z,16.93
2019-04-21T00:16:32.219Z,14.87
2019-04-21T00:19:09.379Z,16.30
2019-04-21T00:21:40.483Z,16.67
2019-04-21T00:24:23.947Z,16.48
2019-04-21T00:27:05.291Z,16.95
2019-04-21T00:29:33.939Z,16.93
2019-04-21T00:32:00.387Z,13.28
2019-04-21T00:34:17.487Z,13.43
2019-04-21T00:36:57.290Z,13.50
2019-04-21T00:39:48.854Z,13.83
2019-04-21T00:42:09.888Z,13.25
2019-04-21T00:44:35.519Z,16.57
2019-04-21T00:47:06.938Z,12.65
2019-04-21T00:49:47.772Z,12.30
2019-04-21T00:55:27.877Z,13.38
2019-04-21T00:57:58.520Z,11.65
2019-04-21T01:02:56.018Z,11.53
2019-04-21T01:05:27.141Z,10.58
2019-04-21T01:08:01.409Z,10.35
2019-04-21T01:10:21.072Z,15.55
2019-04-21T01:13:02.701Z,14.45
2019-04-21T01:15:37.105Z,11.50
2019-04-21T01:18:05.001Z,11.68
2019-04-21T01:20:17.629Z,12.15
2019-04-21T01:22:45.238Z,12.23
2019-04-21T01:25:22.892Z,11.00
2019-04-21T01:27:59.355Z,13.60
2019-04-21T01:30:42.961Z,11.78
2019-04-21T01:33:17.013Z,13.00
2019-04-21T01:35:42.583Z,12.03
2019-04-21T01:38:28.883Z,10.38
2019-04-21T01:41:17.964Z,11.70
2019-04-21T01:43:34.997Z,10.58
2019-04-21T01:46:11.223Z,9.98
2019-04-21T01:48:34.473Z,11.18
2019-04-21T01:51:08.533Z,12.07
2019-04-21T01:54:03.527Z,7.40
2019-04-21T01:56:51.176Z,11.65
2019-04-21T01:59:10.783Z,7.90
2019-04-21T02:01:59.297Z,7.92
2019-04-21T02:04:34.150Z,7.85
2019-04-21T02:07:01.036Z,8.40
2019-04-21T02:09:30.918Z,8.00
2019-04-21T02:12:08.724Z,6.55
2019-04-21T02:14:41.414Z,6.72
2019-04-21T02:17:11.744Z,7.67
2019-04-21T02:19:31.625Z,6.53
2019-04-21T02:21:59.566Z,7.78
2019-04-21T02:27:29.845Z,9.18
2019-04-21T02:30:14.258Z,9.85
2019-04-21T02:32:53.814Z,6.33
2019-04-21T02:35:25.555Z,6.58
2019-04-21T02:37:54.786Z,7.12
2019-04-21T02:40:24.070Z,7.95
2019-04-21T02:42:56.088Z,7.25
2019-04-21T02:45:23.310Z,6.25
2019-04-21T02:47:59.623Z,6.85
2019-04-21T02:52:53.954Z,7.40
2019-04-21T02:55:22.294Z,5.70
2019-04-21T03:04:00.702Z,7.10
2019-04-21T03:09:24.093Z,7.72
2019-04-21T03:11:59.470Z,9.95
2019-04-21T03:14:41.456Z,8.83
2019-04-21T03:16:47.174Z,9.33
2019-04-21T03:19:37.968Z,7.90
2019-04-21T03:22:11.865Z,7.67
2019-04-21T03:25:20.483Z,11.88
2019-04-21T03:29:57.062Z,8.90
2019-04-21T03:37:25.488Z,16.55
2019-04-21T03:39:54.452Z,13.22
2019-04-21T03:42:26.932Z,10.95
2019-04-21T03:50:11.375Z,11.57
2019-04-21T03:52:30.218Z,11.45
2019-04-21T04:09:45.650Z,12.05
2019-04-21T04:12:13.271Z,13.75
2019-04-21T04:19:49.384Z,9.90
2019-04-21T04:25:03.501Z,18.95
2019-04-21T04:29:59.045Z,10.23
2019-04-21T04:32:28.669Z,10.58
2019-04-21T04:35:03.422Z,10.25
2019-04-21T04:37:31.791Z,13.60
2019-04-21T04:42:39.222Z,11.75
2019-04-21T04:45:22.708Z,8.93
2019-04-21T04:50:00.813Z,17.05
2019-04-21T04:55:29.599Z,12.45
2019-04-21T04:57:54.069Z,10.78
2019-04-21T05:02:41.760Z,11.78
2019-04-21T05:05:20.702Z,10.85
2019-04-21T05:07:57.270Z,9.40
2019-04-21T05:10:27.595Z,8.80
2019-04-21T05:15:16.208Z,10.30
2019-04-21T05:17:52.484Z,11.43
2019-04-21T05:20:26.054Z,11.10
2019-04-21T05:22:53.280Z,9.15
2019-04-21T05:25:18.553Z,10.48
2019-04-21T05:27:50.016Z,9.78
2019-04-21T05:30:34.144Z,11.60
2019-04-21T05:33:13.095Z,9.48
2019-04-21T05:35:56.146Z,10.48
2019-04-21T05:38:23.341Z,10.30
2019-04-21T05:40:52.390Z,12.30
2019-04-21T05:43:32.255Z,10.58
2019-04-21T05:46:18.416Z,10.28
2019-04-21T05:48:36.393Z,11.55
2019-04-21T05:51:20.450Z,12.98
2019-04-21T05:53:56.166Z,11.88
2019-04-21T05:56:31.422Z,9.35
2019-04-21T05:58:57.502Z,10.98
2019-04-21T06:01:34.522Z,10.32
2019-04-21T06:04:07.596Z,11.38
2019-04-21T06:06:34.058Z,12.55
2019-04-21T06:09:01.965Z,12.23
2019-04-21T06:11:40.309Z,13.18
2019-04-21T06:14:08.269Z,11.38
2019-04-21T06:16:43.620Z,9.83
2019-04-21T06:19:05.218Z,12.05
2019-04-21T06:21:40.528Z,33.38
2019-04-21T06:24:11.534Z,16.48
2019-04-21T06:26:54.813Z,13.35
2019-04-21T06:29:18.146Z,12.10
2019-04-21T06:32:19.116Z,11.18
2019-04-21T06:34:16.736Z,13.62
2019-04-21T06:39:31.784Z,11.12
2019-04-21T06:42:05.312Z,13.62
2019-04-21T06:44:32.306Z,14.68
2019-04-21T06:47:07.675Z,14.30
2019-04-21T06:49:30.949Z,9.95
2019-04-21T06:52:20.564Z,10.78
2019-04-21T06:54:44.339Z,10.88
2019-04-21T06:57:11.777Z,9.90
2019-04-21T06:59:41.861Z,10.00
2019-04-21T07:04:43.384Z,9.93
2019-04-21T07:07:14.503Z,9.20
2019-04-21T07:10:04.860Z,9.05
2019-04-21T07:12:13.934Z,10.80
2019-04-21T07:14:49.834Z,9.20
2019-04-21T07:17:24.684Z,10.08
2019-04-21T07:19:55.184Z,11.75
2019-04-21T07:22:24.516Z,12.75
2019-04-21T07:25:00.659Z,11.57
2019-04-21T07:27:31.948Z,11.08
2019-04-21T07:29:59.650Z,12.35
2019-04-21T07:32:29.875Z,11.57
2019-04-21T07:35:03.875Z,10.95
2019-04-21T07:37:31.649Z,10.75
2019-04-21T07:39:54.534Z,15.68
2019-04-21T07:42:24.086Z,11.48
2019-04-21T07:44:55.346Z,13.28
2019-04-21T07:47:34.322Z,9.70
2019-04-21T07:53:01.129Z,12.03
2019-04-21T07:57:56.235Z,11.68
2019-04-21T08:00:38.979Z,12.13
2019-04-21T08:03:09.366Z,13.45
2019-04-21T08:05:53.508Z,13.10
2019-04-21T08:07:59.550Z,9.58
2019-04-21T08:10:33.295Z,11.65
2019-04-21T08:13:09.498Z,10.63
2019-04-21T08:15:58.101Z,11.15
2019-04-21T08:18:34.997Z,9.10
2019-04-21T08:21:02.449Z,11.43
2019-04-21T08:23:31.878Z,9.60
2019-04-21T08:26:04.657Z,10.38
2019-04-21T08:28:42.681Z,11.68
2019-04-21T08:31:09.865Z,11.90
2019-04-21T08:36:19.308Z,10.32
2019-04-21T08:38:41.736Z,9.43
2019-04-21T08:41:12.320Z,7.90
2019-04-21T08:43:44.621Z,7.65
2019-04-21T08:46:21.103Z,8.25
2019-04-21T08:48:49.477Z,8.08
2019-04-21T08:56:30.374Z,10.48
2019-04-21T08:59:05.458Z,11.35
2019-04-21T09:04:13.106Z,8.05
2019-04-21T09:09:17.906Z,8.38
2019-04-21T09:11:49.915Z,8.38
2019-04-21T09:14:20.742Z,7.50
2019-04-21T09:16:46.018Z,9.95
2019-04-21T09:19:34.041Z,9.38
2019-04-21T09:21:59.498Z,10.18
2019-04-21T09:24:41.200Z,8.03
2019-04-21T09:26:54.217Z,8.35
2019-04-21T09:29:19.504Z,8.83
2019-04-21T09:31:42.786Z,8.05
2019-04-21T09:34:20.030Z,6.97
2019-04-21T09:36:46.708Z,10.25
2019-04-21T09:39:18.260Z,11.73
2019-04-21T09:41:44.945Z,7.55
2019-04-21T09:44:22.052Z,7.72
2019-04-21T09:46:50.640Z,8.38
2019-04-21T09:49:21.747Z,7.07
2019-04-21T09:51:48.386Z,7.55
2019-04-21T09:54:24.958Z,6.53
2019-04-21T09:56:54.953Z,10.18
2019-04-21T09:59:28.179Z,9.88
2019-04-21T10:01:59.260Z,15.25
2019-04-21T10:04:23.185Z,14.50
2019-04-21T10:06:54.304Z,8.70
2019-04-21T10:09:24.348Z,17.90
2019-04-21T10:15:26.308Z,10.40
2019-04-21T10:20:51.847Z,8.38
2019-04-21T10:23:21.457Z,12.23
2019-04-21T10:25:50.976Z,17.42
2019-04-21T10:30:51.041Z,12.45
2019-04-21T10:35:49.344Z,8.00
2019-04-21T10:40:49.716Z,10.35
2019-04-21T10:43:22.166Z,11.10
2019-04-21T10:45:50.773Z,9.45
2019-04-21T10:48:20.990Z,10.05
2019-04-21T10:50:52.689Z,7.85
2019-04-21T10:53:31.078Z,10.10
2019-04-21T10:56:12.193Z,8.00
2019-04-21T10:58:34.143Z,11.30
2019-04-21T11:01:14.368Z,16.67
2019-04-21T11:03:46.650Z,9.08
2019-04-21T11:06:18.892Z,10.75
2019-04-21T11:08:52.368Z,14.33
2019-04-21T11:11:19.998Z,16.65
2019-04-21T11:16:19.205Z,20.25
2019-04-21T11:18:51.495Z,20.37
2019-04-21T11:21:21.287Z,15.15
2019-04-21T11:26:19.995Z,21.57
2019-04-21T11:28:50.531Z,16.00
2019-04-21T11:31:20.930Z,14.38
2019-04-21T11:33:51.211Z,18.73
2019-04-21T11:36:21.606Z,16.32
2019-04-21T11:39:07.222Z,20.08
2019-04-21T11:41:24.001Z,14.45
2019-04-21T11:46:22.675Z,16.70
2019-04-21T11:51:22.804Z,18.35
2019-04-21T11:53:52.953Z,16.23
2019-04-21T11:56:23.089Z,16.10
2019-04-21T11:58:54.080Z,15.65
2019-04-21T12:01:25.502Z,14.63
2019-04-21T12:03:55.719Z,19.07
2019-04-21T12:06:32.324Z,14.35
2019-04-21T12:08:59.349Z,17.82
2019-04-21T12:11:27.653Z,17.40
2019-04-21T12:16:25.910Z,18.12
2019-04-21T12:21:53.462Z,18.90
2019-04-21T12:24:15.460Z,32.03
2019-04-21T12:29:14.638Z,16.17
2019-04-21T12:31:55.175Z,30.90
2019-04-21T12:34:44.202Z,20.80
2019-04-21T12:37:15.012Z,25.17
2019-04-21T12:39:45.092Z,17.23
2019-04-21T12:42:14.852Z,23.50
2019-04-21T12:44:45.436Z,18.12
2019-04-21T12:47:16.240Z,15.72
2019-04-21T12:49:46.084Z,32.75
2019-04-21T12:54:45.875Z,16.67
2019-04-21T12:57:30.216Z,14.68
2019-04-21T12:59:58.888Z,13.98
2019-04-21T13:02:29.542Z,13.45
2019-04-21T13:04:59.716Z,19.02
2019-04-21T13:07:31.201Z,9.20
2019-04-21T13:10:02.351Z,8.38
2019-04-21T13:12:33.279Z,12.82
2019-04-21T13:15:04.229Z,10.60
2019-04-21T13:17:35.293Z,8.70
2019-04-21T13:20:07.340Z,10.88
2019-04-21T13:22:57.711Z,18.92
2019-04-21T13:25:27.808Z,12.25
2019-04-21T13:27:58.672Z,12.68
2019-04-21T13:30:28.489Z,12.00
2019-04-21T13:32:58.892Z,16.73
2019-04-21T13:35:28.912Z,13.45
2019-04-21T13:37:58.637Z,20.25
2019-04-21T13:43:06.605Z,10.93
2019-04-21T13:45:35.917Z,19.20
2019-04-21T13:48:06.675Z,14.55
2019-04-21T13:50:37.349Z,9.88
2019-04-21T13:53:07.035Z,17.23
2019-04-21T13:58:08.413Z,9.58
2019-04-21T14:00:38.297Z,9.73
2019-04-21T14:05:38.124Z,11.00
2019-04-21T14:08:09.159Z,8.45
2019-04-21T14:10:39.806Z,9.20
2019-04-21T14:13:09.397Z,10.82
2019-04-21T14:18:08.764Z,14.05
2019-04-21T14:20:39.544Z,11.30
2019-04-21T14:23:20.513Z,11.90
2019-04-21T14:25:41.619Z,12.73
2019-04-21T14:28:14.246Z,14.07
2019-04-21T14:30:44.296Z,13.53
2019-04-21T14:33:14.173Z,10.10
2019-04-21T14:35:45.107Z,9.65
2019-04-21T14:38:16.538Z,7.00
2019-04-21T14:40:46.250Z,9.25
2019-04-21T14:43:16.438Z,11.85
2019-04-21T14:45:48.454Z,8.65
2019-04-21T14:48:23.202Z,8.63
2019-04-21T14:50:54.674Z,11.12
2019-04-21T14:53:25.796Z,23.15
2019-04-21T14:55:57.386Z,13.65
2019-04-21T14:58:27.415Z,13.30
2019-04-21T15:01:18.136Z,14.38
2019-04-21T15:03:47.894Z,9.13
2019-04-21T15:06:17.540Z,255.57
2019-04-21T15:11:17.995Z,1375.53
2019-04-21T15:13:48.123Z,1999.90
2019-04-21T15:16:18.699Z,1496.28
2019-04-21T15:18:48.636Z,328.32
2019-04-21T15:21:19.428Z,1632.08
2019-04-21T15:23:50.583Z,774.67
2019-04-21T15:26:20.323Z,229.05
2019-04-21T15:28:50.946Z,317.98
2019-04-21T15:31:28.759Z,504.15
2019-04-21T15:33:52.854Z,171.53
2019-04-21T15:36:22.906Z,100.72
2019-04-21T15:38:53.987Z,13.90
2019-04-21T15:41:24.689Z,14.38
2019-04-21T15:43:54.418Z,15.98
2019-04-21T15:46:24.867Z,26.15
2019-04-21T15:49:15.500Z,10.93
2019-04-21T15:51:46.376Z,13.40
2019-04-21T15:54:16.511Z,33.05
2019-04-21T15:59:30.601Z,19.45
2019-04-21T16:02:04.227Z,32.63
2019-04-21T16:04:36.799Z,23.32
2019-04-21T16:07:08.356Z,20.68
2019-04-21T16:09:46.135Z,18.27
2019-04-21T16:12:17.809Z,18.17
2019-04-21T16:14:47.706Z,17.62
2019-04-21T16:22:16.799Z,14.65
2019-04-21T16:24:47.775Z,11.60
2019-04-21T16:27:17.610Z,15.23
2019-04-21T16:29:47.906Z,12.20
2019-04-21T16:32:19.770Z,17.57
2019-04-21T16:34:54.371Z,16.07
2019-04-21T16:37:19.949Z,15.58
2019-04-21T16:42:22.529Z,23.38
2019-04-21T16:44:52.770Z,32.95
2019-04-21T16:47:24.165Z,29.57
2019-04-21T16:49:53.999Z,25.35
2019-04-21T16:52:25.903Z,25.15
2019-04-21T16:57:43.816Z,18.32
2019-04-21T17:00:26.874Z,21.10
2019-04-21T17:02:48.330Z,22.82
2019-04-21T17:05:18.317Z,29.52
2019-04-21T17:07:49.237Z,33.13
2019-04-21T17:10:20.277Z,36.38
2019-04-21T17:12:51.004Z,33.33
2019-04-21T17:15:51.914Z,34.00
2019-04-21T17:18:22.812Z,26.07
2019-04-21T17:20:46.096Z,24.77
2019-04-21T17:23:07.173Z,25.60
2019-04-21T17:25:37.184Z,19.25
2019-04-21T17:28:07.838Z,21.07
2019-04-21T17:30:37.766Z,24.30
2019-04-21T17:33:10.287Z,26.07
2019-04-21T17:35:39.109Z,28.32
2019-04-21T17:40:40.004Z,29.00
2019-04-21T17:43:14.386Z,28.90
2019-04-21T17:45:41.403Z,27.20
2019-04-21T17:48:14.946Z,26.40
2019-04-21T17:50:45.364Z,20.70
2019-04-21T17:53:27.840Z,16.37
2019-04-21T17:56:15.255Z,17.75
2019-04-21T17:58:48.727Z,16.02
2019-04-21T18:03:53.547Z,16.93
2019-04-21T18:06:11.235Z,16.67
2019-04-21T18:08:46.209Z,16.10
2019-04-21T18:11:42.519Z,19.65
2019-04-21T18:13:49.886Z,21.17
2019-04-21T18:18:50.757Z,24.52
2019-04-21T18:21:32.364Z,26.45
2019-04-21T18:24:08.032Z,20.23
2019-04-21T18:26:41.763Z,22.80
2019-04-21T18:29:07.526Z,20.05
2019-04-21T18:31:44.814Z,20.60
2019-04-21T18:34:29.270Z,22.60
2019-04-21T18:37:04.868Z,23.65
2019-04-21T18:42:39.848Z,25.82
2019-04-21T18:51:04.795Z,22.35
2019-04-21T18:53:47.001Z,23.57
2019-04-21T18:56:20.983Z,29.57
2019-04-21T18:58:50.993Z,32.67
2019-04-21T19:01:27.273Z,31.40
2019-04-21T19:03:55.641Z,35.83
2019-04-21T19:06:44.286Z,35.38
2019-04-21T19:09:11.568Z,36.80
2019-04-21T19:11:44.994Z,39.88
2019-04-21T19:14:29.035Z,40.25
2019-04-21T19:16:59.072Z,55.13
2019-04-21T19:19:41.427Z,80.32
2019-04-21T19:21:55.875Z,77.75
2019-04-21T19:24:59.506Z,68.20
2019-04-21T19:27:18.939Z,62.40
2019-04-21T19:29:51.901Z,67.55
2019-04-21T19:32:19.912Z,56.35
2019-04-21T19:34:34.739Z,63.48
2019-04-21T19:37:10.855Z,63.92
2019-04-21T19:39:48.845Z,52.78
2019-04-21T19:42:30.915Z,50.05
2019-04-21T19:45:06.095Z,50.12
2019-04-21T19:47:39.832Z,43.52
2019-04-21T19:50:11.589Z,40.92
2019-04-21T19:52:34.537Z,55.38
2019-04-21T19:54:56.195Z,58.02
2019-04-21T19:57:25.104Z,54.77
2019-04-21T19:59:59.131Z,54.30
2019-04-21T20:02:26.792Z,61.88
2019-04-21T20:05:02.131Z,97.67
2019-04-21T20:07:43.825Z,97.95
2019-04-21T20:10:23.991Z,104.15
2019-04-21T20:12:50.313Z,124.90
2019-04-21T20:15:33.075Z,125.67
2019-04-21T20:17:50.339Z,128.75
2019-04-21T20:20:07.358Z,162.27
2019-04-21T20:22:51.947Z,164.10
2019-04-21T20:25:23.178Z,203.25
2019-04-21T20:28:00.684Z,182.55
2019-04-21T20:30:42.460Z,206.40
2019-04-21T20:33:38.017Z,228.55
2019-04-21T20:35:53.361Z,204.68
2019-04-21T20:38:14.876Z,172.75
2019-04-21T20:40:35.632Z,168.15
2019-04-21T20:43:16.444Z,158.52
2019-04-21T20:45:55.625Z,131.75
2019-04-21T20:48:11.432Z,97.57
2019-04-21T20:50:43.436Z,92.33
2019-04-21T20:53:19.828Z,74.30
2019-04-21T20:55:48.558Z,74.35
2019-04-21T20:58:24.115Z,67.75
2019-04-21T21:01:06.381Z,61.60
2019-04-21T21:03:24.257Z,60.85
2019-04-21T21:05:50.435Z,50.28
2019-04-21T21:08:31.186Z,50.67
2019-04-21T21:10:57.523Z,45.17
2019-04-21T21:13:32.203Z,45.43
2019-04-21T21:16:13.817Z,70.17
2019-04-21T21:21:29.628Z,61.73
2019-04-21T21:24:03.469Z,67.35
2019-04-21T21:26:38.253Z,59.15
2019-04-21T21:29:01.973Z,54.33
2019-04-21T21:31:41.700Z,55.52
2019-04-21T21:34:16.518Z,52.73
2019-04-21T21:36:41.802Z,45.83
2019-04-21T21:39:10.950Z,52.27
2019-04-21T21:41:33.625Z,51.98
2019-04-21T21:44:05.868Z,48.75
2019-04-21T21:46:44.524Z,47.83
2019-04-21T21:49:33.785Z,41.68
2019-04-21T21:52:02.962Z,37.88
2019-04-21T21:54:23.206Z,40.12
2019-04-21T21:59:37.968Z,40.48
2019-04-21T22:02:09.463Z,43.02
2019-04-21T22:04:38.940Z,56.70
2019-04-21T22:07:12.427Z,46.88
2019-04-21T22:09:39.971Z,51.85
2019-04-21T22:12:10.995Z,56.88
2019-04-21T22:14:46.544Z,52.62
2019-04-21T22:17:33.163Z,51.45
2019-04-21T22:20:03.079Z,52.65
2019-04-21T22:22:28.100Z,53.60
2019-04-21T22:24:55.759Z,57.27
2019-04-21T22:27:17.110Z,55.75
2019-04-21T22:32:25.017Z,62.43
2019-04-21T22:34:54.812Z,62.62
2019-04-21T22:37:36.759Z,55.78
2019-04-21T22:40:07.111Z,59.33
2019-04-21T22:42:31.744Z,61.70
2019-04-21T22:45:00.718Z,55.80
2019-04-21T22:47:43.297Z,59.53
2019-04-21T22:50:38.381Z,53.58
2019-04-21T22:53:10.216Z,55.40
2019-04-21T22:55:40.849Z,54.25
2019-04-21T22:58:11.510Z,47.75
2019-04-21T23:04:07.178Z,46.90
2019-04-21T23:06:39.189Z,46.00
2019-04-21T23:09:10.842Z,42.48
2019-04-21T23:11:45.636Z,44.42
2019-04-21T23:14:14.960Z,44.38
2019-04-21T23:16:45.672Z,49.08
2019-04-21T23:19:31.174Z,45.15
2019-04-21T23:22:03.573Z,41.73
2019-04-21T23:24:42.959Z,46.50
2019-04-21T23:27:05.702Z,43.33
2019-04-21T23:29:48.341Z,38.58
2019-04-21T23:32:11.019Z,37.63
2019-04-21T23:34:26.590Z,37.48
2019-04-21T23:37:05.509Z,42.03
2019-04-21T23:39:30.278Z,37.67
2019-04-21T23:41:59.196Z,44.85
2019-04-21T23:44:33.865Z,42.43
2019-04-21T23:47:04.782Z,39.75
2019-04-21T23:49:42.966Z,38.80
2019-04-21T23:52:06.741Z,42.15
2019-04-21T23:54:33.518Z,39.23
2019-04-21T23:57:12.912Z,62.03
2019-04-21T23:59:40.856Z,68.35
